This is the latest recevied weather packets stored in our database for station/object WX2P-13. If no packets are shown the sender has not sent any weather packets the latest 10 day(s).
| Time | Temp. | Humidity | Pressure | Rain* | Wind** | Luminosity | Snow |
|---|---|---|---|---|---|---|---|
| 1777894516 | 14.44° C | 97% | 1017.7 hPa | 0 mm | - | 26 W/m² | - |
| 1777894214 | 13.89° C | 97% | 1017.7 hPa | 0 mm | - | 20 W/m² | - |
| 1777893910 | 13.89° C | 97% | 1017.7 hPa | 0 mm | - | 16 W/m² | - |
| 1777893607 | 13.89° C | 97% | 1017.7 hPa | 0 mm | - | 14 W/m² | - |
| 1777893303 | 13.33° C | 97% | 1017.6 hPa | 0 mm | - | 10 W/m² | - |
| 1777892999 | 13.33° C | 97% | 1017.5 hPa | 0 mm | - | 9 W/m² | - |
| 1777892697 | 13.33° C | 97% | 1017.5 hPa | 0 mm | - | 6 W/m² | - |
| 1777892392 | 13.33° C | 97% | 1017.1 hPa | 0 mm | - | 3 W/m² | - |
| 1777891786 | 12.78° C | 97% | 1017.3 hPa | 0 mm | - | 0 W/m² | - |
| 1777891178 | 12.78° C | 96% | 1017.4 hPa | 0 mm | - | 0 W/m² | - |
| 1777890872 | 12.78° C | 96% | 1017.3 hPa | 0 mm | - | 0 W/m² | - |
| 1777890569 | 13.33° C | 96% | 1017.3 hPa | 0 mm | - | 0 W/m² | - |
| 1777889961 | 13.33° C | 96% | 1017.1 hPa | 0 mm | - | 0 W/m² | - |
| 1777889659 | 13.33° C | 96% | 1017.1 hPa | 0 mm | - | 0 W/m² | - |
| 1777889355 | 13.33° C | 96% | 1017.1 hPa | 0 mm | - | 0 W/m² | - |
| 1777889053 | 13.33° C | 96% | 1017 hPa | 0 mm | - | 0 W/m² | - |
| 1777888750 | 13.33° C | 96% | 1017.1 hPa | 0 mm | - | 0 W/m² | - |
| 1777888447 | 13.33° C | 96% | 1017.1 hPa | 0 mm | - | 0 W/m² | - |
| 1777887537 | 13.33° C | 96% | 1017.2 hPa | 0 mm | - | 0 W/m² | - |
| 1777887233 | 13.33° C | 96% | 1017.2 hPa | 0 mm | - | 0 W/m² | - |
| 1777886928 | 13.33° C | 96% | 1017.1 hPa | 0 mm | - | 0 W/m² | - |
| 1777886624 | 13.33° C | 95% | 1017.3 hPa | 0 mm | - | 0 W/m² | - |
| 1777886322 | 13.33° C | 95% | 1017.4 hPa | 0 mm | - | 0 W/m² | - |
| 1777886020 | 13.33° C | 95% | 1017 hPa | 0 mm | - | 0 W/m² | - |
| 1777885718 | 13.89° C | 95% | 1017.2 hPa | 0 mm | - | 0 W/m² | - |
* Rain latest hour (hover to see other rain measurements)
** Current wind speed in m/s (hover to see current wind gust speed)